Flight Track Log - Related Links

Times and Time Zones

All times are in EDT time to prevent confusion due to time zone crossing. See the JZA8754 flight status page for this flight to view local times or setup timezone preferences in your user account.

Time Position Orientation Groundspeed Altitude Reporting Facility
EDT Latitude Longitude Course Direction KTS MPH feet Rate Location/Type
Thu 09:06:00 PM 47.7783 -77.3226 131° Southeast  Level Estimated
Thu 09:07:00 PM 47.7359 -77.2528 132° Southeast  Level FlightAware Approximate
Thu 09:08:00 PM 47.6934 -77.1832 132° Southeast  Level FlightAware Approximate
Thu 09:09:00 PM 47.6506 -77.1141 133° Southeast  Level FlightAware Approximate
Thu 09:10:00 PM 47.6077 -77.0453 133° Southeast  Level FlightAware Approximate
Thu 09:11:00 PM 47.5647 -76.9765 133° Southeast  Level FlightAware Approximate
Thu 09:12:00 PM 47.5216 -76.9079 133° Southeast  Level FlightAware Approximate
Thu 09:13:00 PM 47.4790 -76.8387 132° Southeast  Level FlightAware Approximate
Thu 09:13:22 PM 47.6500 -77.0167 131° Southeast 260 299 15,700  Level Montreal Center
Thu 09:14:00 PM 47.4365 -76.7695 132° Southeast  Level FlightAware Approximate
Thu 09:14:22 PM 47.6167 -76.9333 121° Southeast 230 265 16,500  Level Montreal Center
Thu 09:15:00 PM 47.3939 -76.7004 132° Southeast  Level FlightAware Approximate
Thu 09:15:22 PM 47.5667 -76.8833 146° Southeast 230 265 17,500  Level Montreal Center
Thu 09:16:00 PM 47.3522 -76.6302 131° Southeast  Level FlightAware Approximate
Thu 09:16:22 PM 47.5167 -76.8167 138° Southeast 230 265 18,200  Level Montreal Center
Thu 09:17:00 PM 47.3108 -76.5597 131° Southeast  Level FlightAware Approximate
Thu 09:17:22 PM 47.4833 -76.7333 121° Southeast 230 265 18,900  Level Montreal Center
Thu 09:18:00 PM 47.2694 -76.4893 131° Southeast  Level FlightAware Approximate
Thu 09:18:22 PM 47.4333 -76.6833 146° Southeast 230 265 19,700  Level Montreal Center
Thu 09:19:22 PM 47.4000 -76.6167 126° Southeast 240 276 20,500 700 Climbing Montreal Center
Thu 09:20:22 PM 47.3500 -76.5333 132° Southeast 230 265 21,100 645 Climbing Montreal Center
Thu 09:21:23 PM 47.3000 -76.4667 138° Southeast 240 276 21,800 645 Climbing Montreal Center
Thu 09:22:23 PM 47.2500 -76.4167 146° Southeast 230 265 22,400 600 Climbing Montreal Center
Thu 09:23:23 PM 47.2167 -76.3167 116° Southeast 240 276 23,000 300 Climbing Montreal Center
Thu 09:24:23 PM 47.1667 -76.2667 146° Southeast 240 276 23,000  Level Montreal Center
Thu 09:25:23 PM 47.1000 -76.1667 134° Southeast 270 311 23,000  Level Montreal Center
Thu 09:26:23 PM 47.0500 -76.0833 131° Southeast 280 322 23,000  Level Montreal Center
Thu 09:27:23 PM 47.0000 -76.0000 131° Southeast 290 334 23,000  Level Montreal Center
Thu 09:28:23 PM 46.9500 -75.9167 131° Southeast 280 322 23,000  Level Montreal Center
Thu 09:29:23 PM 46.8833 -75.8500 146° Southeast 290 334 23,000  Level Montreal Center
Thu 09:30:23 PM 46.8333 -75.7500 126° Southeast 290 334 23,000  Level Montreal Center
Thu 09:31:23 PM 46.7833 -75.6667 131° Southeast 290 334 23,000  Level Montreal Center
Thu 09:32:23 PM 46.7167 -75.5833 139° Southeast 290 334 23,000 -300 Level Montreal Center
Thu 09:33:23 PM 46.6667 -75.4833 126° Southeast 300 345 22,400 -600 Descending Montreal Center
Thu 09:34:23 PM 46.6167 -75.4000 131° Southeast 310 357 21,800 -600 Descending Montreal Center
Thu 09:35:23 PM 46.5500 -75.3167 139° Southeast 310 357 21,200 -600 Descending Montreal Center
Thu 09:36:23 PM 46.5000 -75.2167 126° Southeast 310 357 20,600 -600 Descending Montreal Center
Thu 09:37:23 PM 46.4333 -75.1167 134° Southeast 310 357 20,000 -600 Descending Montreal Center
Thu 09:38:23 PM 46.3833 -75.0167 126° Southeast 310 357 19,400 -550 Descending Montreal Center
Thu 09:39:23 PM 46.3333 -74.9500 137° Southeast 310 357 18,900 -700 Descending Montreal Center
Thu 09:40:23 PM 46.2500 -74.8500 140° Southeast 310 357 18,000 -900 Descending Montreal Center
Thu 09:41:23 PM 46.2000 -74.7500 126° Southeast 320 368 17,100 -1,050 Descending Montreal Center
Thu 09:42:23 PM 46.1333 -74.6333 129° Southeast 330 380 15,900 -1,200 Descending Montreal Center
Thu 09:43:23 PM 46.0667 -74.5667 145° Southeast 330 380 14,700 -1,150 Descending Montreal Center
Thu 09:44:23 PM 46.0167 -74.4667 126° Southeast 300 345 13,600 -1,000 Descending Montreal Center
Thu 09:45:23 PM 45.9500 -74.4000 145° Southeast 290 334 12,700 -950 Descending Montreal Center
Thu 09:46:23 PM 45.9000 -74.3333 137° Southeast 280 322 11,700 -1,050 Descending Montreal Center
Thu 09:47:23 PM 45.8333 -74.2667 145° Southeast 280 322 10,600 -850 Descending Montreal Center
Thu 09:48:23 PM 45.7833 -74.1833 131° Southeast 270 311 10,000 -600 Descending Montreal Center
Thu 09:49:23 PM 45.7333 -74.1000 131° Southeast 260 299 9,400 -550 Descending Montreal Center
Thu 09:50:23 PM 45.7000 -74.0167 120° Southeast 250 288 8,900 -600 Descending Montreal Center
Thu 09:51:23 PM 45.6500 -73.9333 131° Southeast 250 288 8,200 -850 Descending Montreal Center
Thu 09:52:23 PM 45.6500 -73.8333 90° East 250 288 7,200 -1,400 Descending Montreal Center
Thu 09:53:23 PM 45.6333 -73.7333 103° East 250 288 5,400 -1,900 Descending Montreal Center
Thu 09:54:23 PM 45.6000 -73.6667 126° Southeast 240 276 3,400 -1,500 Descending Montreal Center
Thu 09:55:23 PM 45.5500 -73.6167 145° Southeast 170 196 2,400 -1,150 Descending Montreal Center
Thu 09:56:23 PM 45.5167 -73.6667 226° Southwest 160 184 1,100 -1,000 Descending Montreal Center
Thu 09:57:23 PM 45.4833 -73.7167 226° Southwest 130 150 400 -500 Descending Montreal Center
Thu 09:58:23 PM 45.4667 -73.7500 235° Southwest 60 69 100 -150 Descending Montreal Center
Thu 09:59:23 PM 45.4500 -73.7500 180° South 20 23 100  Level Montreal Center
Thu 10:00:41 PM 45.4500 -73.7500 180° South 10 12 100  Level Montreal Center
Thu 10:01:41 PM 45.4500 -73.7167 90° East 20 23 100  Level Montreal Center

Login

Don't have an account? Register now (free) for customized features, flight alerts, and more!